createdAt,value
2023-03-20T00:02:40.686Z,97832.13
2023-03-20T00:07:42.517Z,97828.66
2023-03-20T00:12:45.675Z,97820.78
2023-03-20T00:17:47.266Z,97820.31
2023-03-20T00:22:49.656Z,97826.34
2023-03-20T00:27:52.422Z,97823.88
2023-03-20T00:32:55.895Z,97819.66
2023-03-20T00:37:58.374Z,97820.00
2023-03-20T00:43:03.107Z,97822.56
2023-03-20T00:48:05.916Z,97823.03
2023-03-20T00:53:11.288Z,97822.75
2023-03-20T00:58:15.831Z,97822.44
2023-03-20T01:03:21.336Z,97817.22
2023-03-20T01:08:26.166Z,97822.22
2023-03-20T01:13:30.427Z,97827.44
2023-03-20T01:18:32.087Z,97814.13
2023-03-20T01:23:33.972Z,97809.63
2023-03-20T01:28:35.823Z,97819.53
2023-03-20T01:33:38.377Z,97812.25
2023-03-20T01:38:40.745Z,97818.06
2023-03-20T01:43:43.271Z,97820.50
2023-03-20T01:48:58.026Z,97815.47
2023-03-20T01:54:08.120Z,97816.47
2023-03-20T01:59:18.214Z,97813.38
2023-03-20T02:04:28.509Z,97816.63
2023-03-20T02:09:37.381Z,97816.31
2023-03-20T02:14:46.951Z,97820.81
2023-03-20T02:20:19.513Z,97817.91
2023-03-20T02:25:42.613Z,97826.81
2023-03-20T02:31:00.362Z,97822.78
2023-03-20T02:36:38.234Z,97818.72
2023-03-20T02:41:45.603Z,97818.56
2023-03-20T02:47:00.130Z,97820.16
2023-03-20T02:52:19.675Z,97815.47
2023-03-20T02:57:51.186Z,97825.03
2023-03-20T03:03:19.054Z,97822.78
2023-03-20T03:08:23.860Z,97821.66
2023-03-20T03:13:31.102Z,97806.22
2023-03-20T03:18:35.994Z,97815.31
2023-03-20T03:23:45.371Z,97816.84
2023-03-20T03:28:51.768Z,97823.56
2023-03-20T03:33:56.397Z,97814.00
2023-03-20T03:39:17.041Z,97810.88
2023-03-20T03:44:49.822Z,97822.09
2023-03-20T03:49:58.897Z,97813.78
2023-03-20T03:55:04.958Z,97827.72
2023-03-20T04:00:08.917Z,97826.66
2023-03-20T04:05:19.688Z,97821.97
2023-03-20T04:10:21.439Z,97825.81
2023-03-20T04:15:23.137Z,97829.97
2023-03-20T04:20:24.786Z,97829.03
2023-03-20T04:25:26.739Z,97824.97
2023-03-20T04:30:30.464Z,97833.06
2023-03-20T04:35:52.306Z,97832.44
2023-03-20T04:40:54.455Z,97838.16
2023-03-20T04:45:56.481Z,97841.31
2023-03-20T04:50:58.333Z,97841.69
2023-03-20T04:56:11.893Z,97845.53
2023-03-20T05:01:14.409Z,97856.69
2023-03-20T05:06:16.077Z,97855.94
2023-03-20T05:11:19.273Z,97858.59
2023-03-20T05:16:50.702Z,97870.91
2023-03-20T05:22:21.377Z,97880.38
2023-03-20T05:27:46.248Z,97884.72
2023-03-20T05:33:26.210Z,97887.34
2023-03-20T05:38:50.863Z,97889.34
2023-03-20T05:44:11.227Z,97892.38
2023-03-20T05:49:31.418Z,97891.53
2023-03-20T05:54:51.682Z,97893.59
2023-03-20T06:00:01.347Z,97900.47
2023-03-20T06:05:15.214Z,97907.03
2023-03-20T06:10:22.218Z,97912.44
2023-03-20T06:15:25.897Z,97913.91
2023-03-20T06:20:34.385Z,97915.31
2023-03-20T06:25:38.674Z,97919.00
2023-03-20T06:30:44.415Z,97923.53
2023-03-20T06:35:51.492Z,97922.88
2023-03-20T06:40:53.139Z,97926.19
2023-03-20T06:45:54.879Z,97932.22
2023-03-20T06:51:00.068Z,97923.53
2023-03-20T06:56:09.668Z,97920.50
2023-03-20T07:01:20.448Z,97912.56
2023-03-20T07:06:22.985Z,97914.66
2023-03-20T07:11:25.391Z,97918.75
2023-03-20T07:16:29.479Z,97917.78
2023-03-20T07:21:31.853Z,97921.28
2023-03-20T07:26:34.018Z,97922.03
2023-03-20T07:31:36.467Z,97930.19
2023-03-20T07:36:48.311Z,97930.78
2023-03-20T07:41:53.739Z,97935.28
2023-03-20T07:47:12.063Z,97942.47
2023-03-20T07:52:14.020Z,97941.44
2023-03-20T07:57:15.726Z,97946.03
2023-03-20T08:02:18.252Z,97949.28
2023-03-20T08:07:19.921Z,97952.72
2023-03-20T08:12:21.789Z,97945.78
2023-03-20T08:17:23.606Z,97950.34
2023-03-20T08:22:25.509Z,97942.28
2023-03-20T08:27:27.155Z,97950.47
2023-03-20T08:32:28.789Z,97946.50
2023-03-20T08:37:30.611Z,97942.09
2023-03-20T08:42:34.557Z,97948.41
2023-03-20T08:47:36.186Z,97955.28
2023-03-20T08:52:37.845Z,97954.91
2023-03-20T08:57:40.608Z,97964.88
2023-03-20T09:02:43.249Z,97964.75
2023-03-20T09:07:45.185Z,97967.38
2023-03-20T09:12:46.851Z,97954.31
2023-03-20T09:17:48.498Z,97965.69
2023-03-20T09:22:50.186Z,97968.34
2023-03-20T09:27:55.280Z,97972.66
2023-03-20T09:32:57.007Z,97964.84
2023-03-20T09:37:58.691Z,97968.00
2023-03-20T09:43:26.143Z,97973.84
2023-03-20T09:48:49.176Z,97980.72
2023-03-20T09:53:59.272Z,97975.88
2023-03-20T09:59:05.212Z,97969.72
2023-03-20T10:04:10.256Z,97965.00
2023-03-20T10:09:21.154Z,97974.94
2023-03-20T10:14:44.505Z,97983.94
2023-03-20T10:19:57.358Z,97984.03
2023-03-20T10:25:16.922Z,97976.31
2023-03-20T10:30:38.930Z,97979.94
2023-03-20T10:35:56.857Z,97972.22
2023-03-20T10:40:59.235Z,97978.38
2023-03-20T10:46:08.064Z,97970.59
2023-03-20T10:51:22.432Z,97973.31
2023-03-20T10:56:44.937Z,97962.88
2023-03-20T11:01:46.641Z,97958.72
2023-03-20T11:07:01.144Z,97948.59
2023-03-20T11:12:04.184Z,97950.03
2023-03-20T11:17:06.740Z,97948.75
2023-03-20T11:22:28.838Z,97939.28
2023-03-20T11:27:34.907Z,97942.88
2023-03-20T11:32:45.339Z,97942.16
2023-03-20T11:37:51.017Z,97939.34
2023-03-20T11:43:01.886Z,97931.13
2023-03-20T11:48:04.738Z,97931.53
2023-03-20T11:53:24.631Z,97925.19
2023-03-20T11:58:26.688Z,97919.38
2023-03-20T12:03:41.801Z,97927.97
2023-03-20T12:08:48.221Z,97943.69
2023-03-20T12:13:51.367Z,97924.41
2023-03-20T12:19:01.289Z,97937.53
2023-03-20T12:24:14.894Z,97932.63
2023-03-20T12:29:19.163Z,97933.88
2023-03-20T12:34:28.163Z,97928.00
2023-03-20T12:39:41.447Z,97940.88
2023-03-20T12:44:55.820Z,97936.63
2023-03-20T12:50:04.541Z,97931.06
2023-03-20T12:55:26.434Z,97935.44
2023-03-20T13:00:38.746Z,97935.16
2023-03-20T13:05:51.663Z,97917.50
2023-03-20T13:11:18.022Z,97902.16
2023-03-20T13:16:34.855Z,97905.78
2023-03-20T13:21:57.318Z,97897.63
2023-03-20T13:27:16.868Z,97890.19
2023-03-20T13:32:32.406Z,97891.59
2023-03-20T13:37:40.738Z,97892.59
2023-03-20T13:42:54.912Z,97889.72
2023-03-20T13:47:58.274Z,97890.25
2023-03-20T13:53:35.322Z,97894.00
2023-03-20T13:58:45.899Z,97879.09
2023-03-20T14:03:49.013Z,97875.44
2023-03-20T14:08:54.513Z,97873.88
2023-03-20T14:14:08.303Z,97880.47
2023-03-20T14:19:25.492Z,97870.06
2023-03-20T14:24:28.377Z,97872.22
2023-03-20T14:29:29.997Z,97858.47
2023-03-20T14:34:49.584Z,97863.38
2023-03-20T14:40:00.426Z,97887.72
2023-03-20T14:45:24.266Z,97874.91
2023-03-20T14:50:47.673Z,97870.28
2023-03-20T14:55:49.328Z,97864.41
2023-03-20T15:00:50.983Z,97847.53
2023-03-20T15:05:57.720Z,97851.75
2023-03-20T15:11:05.861Z,97851.72
2023-03-20T15:16:13.588Z,97844.97
2023-03-20T15:21:17.746Z,97849.31
2023-03-20T15:26:22.328Z,97847.88
2023-03-20T15:31:29.746Z,97843.38
2023-03-20T15:36:36.869Z,97844.69
2023-03-20T15:41:39.073Z,97831.59
2023-03-20T15:46:41.436Z,97837.44
2023-03-20T15:51:43.465Z,97841.47
2023-03-20T15:56:46.462Z,97848.69
2023-03-20T16:01:51.163Z,97855.16
2023-03-20T16:07:00.485Z,97855.88
2023-03-20T16:12:03.157Z,97851.97
2023-03-20T16:17:05.611Z,97853.75
2023-03-20T16:22:46.334Z,97846.91
2023-03-20T16:27:51.741Z,97859.13
2023-03-20T16:33:01.726Z,97857.38
2023-03-20T16:38:16.530Z,97858.06
2023-03-20T16:43:23.810Z,97860.63
2023-03-20T16:48:28.491Z,97863.88
2023-03-20T16:53:37.921Z,97860.03
2023-03-20T16:58:41.288Z,97854.03
2023-03-20T17:03:58.536Z,97852.28
2023-03-20T17:09:08.798Z,97853.41
2023-03-20T17:14:10.418Z,97856.19
2023-03-20T17:19:19.219Z,97852.31
2023-03-20T17:24:20.931Z,97853.13
2023-03-20T17:29:22.663Z,97852.94
2023-03-20T17:34:24.670Z,97850.50
2023-03-20T17:39:26.345Z,97859.25
2023-03-20T17:44:28.023Z,97856.00
2023-03-20T17:49:29.639Z,97850.00
2023-03-20T17:54:31.507Z,97852.78
2023-03-20T17:59:33.263Z,97851.31
2023-03-20T18:04:35.845Z,97846.44
2023-03-20T18:09:37.539Z,97848.84
2023-03-20T18:14:39.341Z,97847.41
2023-03-20T18:19:42.297Z,97847.53
2023-03-20T18:24:45.586Z,97854.50
2023-03-20T18:29:47.600Z,97854.31
2023-03-20T18:34:49.223Z,97857.84
2023-03-20T18:39:50.939Z,97864.34
2023-03-20T18:44:52.772Z,97859.31
2023-03-20T18:49:54.597Z,97866.34
2023-03-20T18:54:56.461Z,97871.78
2023-03-20T18:59:58.398Z,97867.63
2023-03-20T19:05:00.198Z,97862.75
2023-03-20T19:10:02.038Z,97867.00
2023-03-20T19:15:04.287Z,97866.63
2023-03-20T19:20:22.127Z,97866.94
2023-03-20T19:25:24.013Z,97865.72
2023-03-20T19:30:33.341Z,97863.72
2023-03-20T19:35:58.907Z,97864.47
2023-03-20T19:40:59.230Z,97862.63
2023-03-20T19:46:01.188Z,97868.41
2023-03-20T19:51:04.648Z,97861.09
2023-03-20T19:56:06.775Z,97874.34
2023-03-20T20:01:15.758Z,97865.88
2023-03-20T20:06:20.174Z,97859.41
2023-03-20T20:11:23.651Z,97859.00
2023-03-20T20:16:25.537Z,97867.94
2023-03-20T20:26:55.329Z,97852.50
2023-03-20T20:32:01.961Z,97852.25
2023-03-20T20:42:25.807Z,97838.72
2023-03-20T20:47:27.861Z,97843.78
2023-03-20T20:52:31.366Z,97841.88
2023-03-20T20:57:33.441Z,97839.94
2023-03-20T21:02:39.483Z,97843.06
2023-03-20T21:07:46.307Z,97849.44
2023-03-20T21:12:58.990Z,97852.31
2023-03-20T21:18:02.065Z,97842.38
2023-03-20T21:23:04.280Z,97847.78
2023-03-20T21:28:06.797Z,97848.53
2023-03-20T21:33:08.801Z,97845.63
2023-03-20T21:38:55.332Z,97844.88
2023-03-20T21:43:32.510Z,97855.56
2023-03-20T21:49:23.966Z,97853.97
2023-03-20T21:59:54.435Z,97858.06
2023-03-20T22:05:24.746Z,97859.03
2023-03-20T22:16:17.155Z,97873.13
2023-03-20T22:21:36.445Z,97868.44
2023-03-20T22:27:01.667Z,97871.88
2023-03-20T22:37:37.788Z,97877.03
2023-03-20T22:42:53.696Z,97878.16
2023-03-20T22:47:40.740Z,97878.66
2023-03-20T22:52:49.196Z,97873.78
2023-03-20T22:58:06.348Z,97881.41
2023-03-20T23:03:41.952Z,97882.84
2023-03-20T23:08:36.176Z,97887.88
2023-03-20T23:13:41.576Z,97892.72
2023-03-20T23:18:43.634Z,97896.59
2023-03-20T23:23:45.623Z,97893.53
2023-03-20T23:28:49.423Z,97883.78
2023-03-20T23:33:56.481Z,97878.13
2023-03-20T23:38:58.357Z,97872.44
2023-03-20T23:44:00.388Z,97871.81
2023-03-20T23:49:02.362Z,97880.22
2023-03-20T23:54:04.290Z,97889.91
2023-03-20T23:59:20.248Z,97883.72
